createdAt,value
2023-03-01T00:01:43.948Z,99.90
2023-03-01T00:04:12.120Z,99.90
2023-03-01T00:06:40.041Z,99.90
2023-03-01T00:09:08.440Z,99.90
2023-03-01T00:11:37.483Z,99.90
2023-03-01T00:14:08.916Z,99.90
2023-03-01T00:16:43.001Z,99.90
2023-03-01T00:19:21.713Z,99.90
2023-03-01T00:21:50.368Z,99.90
2023-03-01T00:24:18.140Z,99.90
2023-03-01T00:26:46.480Z,99.90
2023-03-01T00:29:14.782Z,99.90
2023-03-01T00:31:42.942Z,99.90
2023-03-01T00:34:11.369Z,99.90
2023-03-01T00:36:39.787Z,99.90
2023-03-01T00:39:13.352Z,99.90
2023-03-01T00:41:41.901Z,99.90
2023-03-01T00:44:10.787Z,99.90
2023-03-01T00:46:39.249Z,99.90
2023-03-01T00:49:07.591Z,99.90
2023-03-01T00:51:35.954Z,99.90
2023-03-01T00:54:10.268Z,99.90
2023-03-01T00:56:38.831Z,99.90
2023-03-01T00:59:06.807Z,99.90
2023-03-01T01:01:35.408Z,99.90
2023-03-01T01:04:09.004Z,99.90
2023-03-01T01:06:47.789Z,99.90
2023-03-01T01:09:18.654Z,99.90
2023-03-01T01:11:51.788Z,99.90
2023-03-01T01:14:20.816Z,99.90
2023-03-01T01:16:50.310Z,99.90
2023-03-01T01:19:19.162Z,99.90
2023-03-01T01:21:47.578Z,99.90
2023-03-01T01:24:16.841Z,99.90
2023-03-01T01:26:45.843Z,99.90
2023-03-01T01:29:15.130Z,99.90
2023-03-01T01:31:45.167Z,99.90
2023-03-01T01:34:22.133Z,99.90
2023-03-01T01:36:52.804Z,99.90
2023-03-01T01:39:21.504Z,99.90
2023-03-01T01:41:50.148Z,99.90
2023-03-01T01:44:25.156Z,99.90
2023-03-01T01:47:06.935Z,99.90
2023-03-01T01:49:52.625Z,99.90
2023-03-01T01:52:26.917Z,99.90
2023-03-01T01:55:17.820Z,99.90
2023-03-01T01:57:50.465Z,99.90
2023-03-01T02:00:30.393Z,99.90
2023-03-01T02:03:04.070Z,99.90
2023-03-01T02:05:44.695Z,99.90
2023-03-01T02:08:15.842Z,99.90
2023-03-01T02:10:46.641Z,99.90
2023-03-01T02:13:15.076Z,99.90
2023-03-01T02:15:45.371Z,99.90
2023-03-01T02:18:18.263Z,99.90
2023-03-01T02:21:01.310Z,99.90
2023-03-01T02:23:30.519Z,99.90
2023-03-01T02:26:18.238Z,99.90
2023-03-01T02:28:47.692Z,99.90
2023-03-01T02:31:38.972Z,99.90
2023-03-01T02:34:10.162Z,99.90
2023-03-01T02:36:45.632Z,99.90
2023-03-01T02:39:20.337Z,99.90
2023-03-01T02:41:54.778Z,99.90
2023-03-01T02:44:24.396Z,99.90
2023-03-01T02:46:55.802Z,99.90
2023-03-01T02:49:27.943Z,99.90
2023-03-01T02:52:36.113Z,99.90
2023-03-01T02:55:12.207Z,99.90
2023-03-01T02:57:43.597Z,99.90
2023-03-01T03:00:21.445Z,99.90
2023-03-01T03:02:53.378Z,99.90
2023-03-01T03:05:33.159Z,99.90
2023-03-01T03:08:05.166Z,99.90
2023-03-01T03:10:40.867Z,99.90
2023-03-01T03:13:11.699Z,99.90
2023-03-01T03:15:40.742Z,99.90
2023-03-01T03:18:12.483Z,99.90
2023-03-01T03:20:43.188Z,99.90
2023-03-01T03:23:12.972Z,99.90
2023-03-01T03:25:44.680Z,99.90
2023-03-01T03:28:12.911Z,99.90
2023-03-01T03:30:42.417Z,99.90
2023-03-01T03:33:13.905Z,99.90
2023-03-01T03:35:49.637Z,99.90
2023-03-01T03:38:23.502Z,99.90
2023-03-01T03:41:02.552Z,99.90
2023-03-01T03:43:36.378Z,99.90
2023-03-01T03:46:08.309Z,99.90
2023-03-01T03:48:38.749Z,99.90
2023-03-01T03:51:09.059Z,99.90
2023-03-01T03:53:37.387Z,99.90
2023-03-01T03:56:06.691Z,99.90
2023-03-01T03:58:35.316Z,99.90
2023-03-01T04:01:04.140Z,99.90
2023-03-01T04:03:34.275Z,99.90
2023-03-01T04:06:03.411Z,99.90
2023-03-01T04:08:31.806Z,99.90
2023-03-01T04:11:23.725Z,99.90
2023-03-01T04:13:52.767Z,99.90
2023-03-01T04:16:21.027Z,99.90
2023-03-01T04:18:50.026Z,99.90
2023-03-01T04:21:18.509Z,99.90
2023-03-01T04:23:46.443Z,99.90
2023-03-01T04:26:14.740Z,99.90
2023-03-01T04:28:47.133Z,99.90
2023-03-01T04:31:19.542Z,99.90
2023-03-01T04:33:56.469Z,99.90
2023-03-01T04:36:27.512Z,99.90
2023-03-01T04:38:56.903Z,99.90
2023-03-01T04:41:27.592Z,99.90
2023-03-01T04:43:56.027Z,99.90
2023-03-01T04:46:24.118Z,99.90
2023-03-01T04:48:52.417Z,99.90
2023-03-01T04:51:20.490Z,99.90
2023-03-01T04:53:52.167Z,99.90
2023-03-01T04:56:20.578Z,99.90
2023-03-01T04:58:49.048Z,99.90
2023-03-01T05:01:20.349Z,99.30
2023-03-01T05:03:51.393Z,98.50
2023-03-01T05:06:21.017Z,97.70
2023-03-01T05:08:49.077Z,96.40
2023-03-01T05:11:16.966Z,95.40
2023-03-01T05:13:45.431Z,94.20
2023-03-01T05:16:13.626Z,91.30
2023-03-01T05:18:42.385Z,85.80
2023-03-01T05:21:17.509Z,84.90
2023-03-01T05:23:48.436Z,85.10
2023-03-01T05:26:28.500Z,83.60
2023-03-01T05:29:01.122Z,81.30
2023-03-01T05:31:29.930Z,80.90
2023-03-01T05:33:57.895Z,82.40
2023-03-01T05:36:25.903Z,83.40
2023-03-01T05:38:53.806Z,82.10
2023-03-01T05:41:22.089Z,81.40
2023-03-01T05:43:50.024Z,81.30
2023-03-01T05:46:18.044Z,79.80
2023-03-01T05:48:46.009Z,78.10
2023-03-01T05:51:14.054Z,77.40
2023-03-01T05:53:42.049Z,76.50
2023-03-01T05:56:10.333Z,76.50
2023-03-01T05:58:40.265Z,76.30
2023-03-01T06:01:14.067Z,76.60
2023-03-01T06:03:44.314Z,77.80
2023-03-01T06:06:12.329Z,76.10
2023-03-01T06:08:40.090Z,76.50
2023-03-01T06:11:08.907Z,76.80
2023-03-01T06:13:36.803Z,75.00
2023-03-01T06:16:08.562Z,75.60
2023-03-01T06:18:36.907Z,75.80
2023-03-01T06:21:06.201Z,75.50
2023-03-01T06:23:34.454Z,75.80
2023-03-01T06:26:02.461Z,74.70
2023-03-01T06:28:30.169Z,75.40
2023-03-01T06:30:58.071Z,75.10
2023-03-01T06:33:25.883Z,76.00
2023-03-01T06:35:56.093Z,76.60
2023-03-01T06:38:26.287Z,77.60
2023-03-01T06:40:56.068Z,73.20
2023-03-01T06:43:24.858Z,74.10
2023-03-01T06:45:52.688Z,73.50
2023-03-01T06:48:20.541Z,73.70
2023-03-01T06:50:48.384Z,75.00
2023-03-01T06:53:16.521Z,74.90
2023-03-01T06:55:44.329Z,74.70
2023-03-01T06:58:12.728Z,71.40
2023-03-01T07:00:42.099Z,69.70
2023-03-01T07:03:10.144Z,67.50
2023-03-01T07:05:38.007Z,65.80
2023-03-01T07:08:05.924Z,63.20
2023-03-01T07:10:33.825Z,61.50
2023-03-01T07:13:01.747Z,62.10
2023-03-01T07:15:30.271Z,62.80
2023-03-01T07:17:58.384Z,61.80
2023-03-01T07:20:26.797Z,61.20
2023-03-01T07:22:56.030Z,61.10
2023-03-01T07:25:23.926Z,61.20
2023-03-01T07:27:55.393Z,62.90
2023-03-01T07:30:25.200Z,62.50
2023-03-01T07:32:55.606Z,63.40
2023-03-01T07:35:25.138Z,64.30
2023-03-01T07:37:53.050Z,64.20
2023-03-01T07:40:21.166Z,63.00
2023-03-01T07:42:56.176Z,62.70
2023-03-01T07:45:24.001Z,62.10
2023-03-01T07:47:52.831Z,61.60
2023-03-01T07:50:21.631Z,60.50
2023-03-01T07:52:50.537Z,60.20
2023-03-01T07:55:18.342Z,60.80
2023-03-01T07:57:46.134Z,61.90
2023-03-01T08:00:14.604Z,62.70
2023-03-01T08:02:43.275Z,62.70
2023-03-01T08:05:11.921Z,65.00
2023-03-01T08:07:39.606Z,65.80
2023-03-01T08:10:08.246Z,67.30
2023-03-01T08:12:36.086Z,68.60
2023-03-01T08:15:04.374Z,70.80
2023-03-01T08:17:32.023Z,71.40
2023-03-01T08:19:59.984Z,70.30
2023-03-01T08:22:27.654Z,70.50
2023-03-01T08:24:57.337Z,70.90
2023-03-01T08:27:25.636Z,71.10
2023-03-01T08:29:53.715Z,70.10
2023-03-01T08:32:21.552Z,71.40
2023-03-01T08:34:49.479Z,72.90
2023-03-01T08:37:17.170Z,73.20
2023-03-01T08:39:45.002Z,73.90
2023-03-01T08:42:12.868Z,72.30
2023-03-01T08:44:40.569Z,74.80
2023-03-01T08:47:08.276Z,76.30
2023-03-01T08:49:36.209Z,76.80
2023-03-01T08:52:04.780Z,77.10
2023-03-01T08:54:32.641Z,77.60
2023-03-01T08:57:02.523Z,76.10
2023-03-01T08:59:31.191Z,76.50
2023-03-01T09:01:59.321Z,78.20
2023-03-01T09:04:30.463Z,76.40
2023-03-01T09:06:58.693Z,77.90
2023-03-01T09:09:26.519Z,75.80
2023-03-01T09:11:54.405Z,75.70
2023-03-01T09:14:22.178Z,74.40
2023-03-01T09:16:50.458Z,73.10
2023-03-01T09:19:18.530Z,72.70
2023-03-01T09:21:53.723Z,74.80
2023-03-01T09:24:24.744Z,72.60
2023-03-01T09:26:57.219Z,72.00
2023-03-01T09:29:25.953Z,69.20
2023-03-01T09:31:56.646Z,68.70
2023-03-01T09:34:25.228Z,69.80
2023-03-01T09:36:53.551Z,67.40
2023-03-01T09:39:22.113Z,64.50
2023-03-01T09:42:05.923Z,64.00
2023-03-01T09:44:39.476Z,65.00
2023-03-01T09:47:19.232Z,65.70
2023-03-01T09:49:58.636Z,62.50
2023-03-01T09:52:46.627Z,63.80
2023-03-01T09:55:17.786Z,60.90
2023-03-01T09:58:00.981Z,53.90
2023-03-01T10:00:38.297Z,52.00
2023-03-01T10:03:36.412Z,52.00
2023-03-01T10:06:32.242Z,46.90
2023-03-01T10:09:14.019Z,45.50
2023-03-01T10:11:50.094Z,47.30
2023-03-01T10:14:31.060Z,47.50
2023-03-01T10:17:09.259Z,47.70
2023-03-01T10:19:44.011Z,46.50
2023-03-01T10:22:29.504Z,46.30
2023-03-01T10:25:01.223Z,45.40
2023-03-01T10:27:45.846Z,45.80
2023-03-01T10:30:37.944Z,45.60
2023-03-01T10:33:20.358Z,43.80
2023-03-01T10:35:48.720Z,43.30
2023-03-01T10:38:17.879Z,43.00
2023-03-01T10:41:00.920Z,42.90
2023-03-01T10:43:44.629Z,42.80
2023-03-01T10:46:30.841Z,43.40
2023-03-01T10:49:23.552Z,42.10
2023-03-01T10:51:55.225Z,41.70
2023-03-01T10:54:32.028Z,39.70
2023-03-01T10:57:05.852Z,41.40
2023-03-01T10:59:36.956Z,43.30
2023-03-01T11:02:24.435Z,44.10
2023-03-01T11:05:16.344Z,45.40
2023-03-01T11:08:00.508Z,45.90
2023-03-01T11:10:34.513Z,41.10
2023-03-01T11:13:17.199Z,40.80
2023-03-01T11:16:03.979Z,41.10
2023-03-01T11:18:46.286Z,39.40
2023-03-01T11:21:19.748Z,38.40
2023-03-01T11:23:48.466Z,38.00
2023-03-01T11:26:18.918Z,38.00
2023-03-01T11:28:55.367Z,38.80
2023-03-01T11:31:26.010Z,35.80
2023-03-01T11:34:16.606Z,37.30
2023-03-01T11:36:48.035Z,37.80
2023-03-01T11:39:53.875Z,36.60
2023-03-01T11:42:55.851Z,37.70
2023-03-01T11:45:27.912Z,38.00
2023-03-01T11:48:52.499Z,36.00
2023-03-01T11:51:28.361Z,36.70
2023-03-01T11:54:17.489Z,36.20
2023-03-01T11:57:42.372Z,36.60
2023-03-01T12:00:28.182Z,36.00
2023-03-01T12:03:19.446Z,35.00
2023-03-01T12:05:59.670Z,35.70
2023-03-01T12:08:40.266Z,35.70
2023-03-01T12:11:29.882Z,36.70
2023-03-01T12:14:26.342Z,37.80
2023-03-01T12:17:06.504Z,37.80
2023-03-01T12:20:01.947Z,37.50
2023-03-01T12:23:20.334Z,37.20
2023-03-01T12:26:23.557Z,38.20
2023-03-01T12:29:03.740Z,36.50
2023-03-01T12:31:37.628Z,36.50
2023-03-01T12:34:23.855Z,36.10
2023-03-01T12:37:00.195Z,36.30
2023-03-01T12:40:09.619Z,35.60
2023-03-01T12:42:58.993Z,34.90
2023-03-01T12:45:42.177Z,35.90
2023-03-01T12:48:21.872Z,36.70
2023-03-01T12:50:59.086Z,36.40
2023-03-01T12:53:33.463Z,35.30
2023-03-01T12:56:30.361Z,35.20
2023-03-01T12:59:27.020Z,35.50
2023-03-01T13:02:03.834Z,35.90
2023-03-01T13:04:41.507Z,36.50
2023-03-01T13:07:26.125Z,37.80
2023-03-01T13:10:20.924Z,37.80
2023-03-01T13:13:02.374Z,37.70
2023-03-01T13:15:36.287Z,37.00
2023-03-01T13:18:04.503Z,36.20
2023-03-01T13:20:43.152Z,35.60
2023-03-01T13:23:23.245Z,35.50
2023-03-01T13:26:09.383Z,35.20
2023-03-01T13:28:47.473Z,34.90
2023-03-01T13:31:20.780Z,34.60
2023-03-01T13:33:57.507Z,34.90
2023-03-01T13:36:31.795Z,34.90
2023-03-01T13:39:02.970Z,35.70
2023-03-01T13:41:52.699Z,37.00
2023-03-01T13:44:28.555Z,39.00
2023-03-01T13:47:08.328Z,38.90
2023-03-01T13:50:01.787Z,39.10
2023-03-01T13:52:40.828Z,41.40
2023-03-01T13:55:38.318Z,45.00
2023-03-01T13:58:24.853Z,45.40
2023-03-01T14:01:07.246Z,46.80
2023-03-01T14:03:43.068Z,49.50
2023-03-01T14:06:21.076Z,51.90
2023-03-01T14:08:52.325Z,53.70
2023-03-01T14:11:39.934Z,54.10
2023-03-01T14:14:28.690Z,55.50
2023-03-01T14:17:04.463Z,55.40
2023-03-01T14:19:34.738Z,55.70
2023-03-01T14:22:05.676Z,56.30
2023-03-01T14:24:48.331Z,56.50
2023-03-01T14:27:16.638Z,55.90
2023-03-01T14:29:44.624Z,54.20
2023-03-01T14:32:25.310Z,54.60
2023-03-01T14:34:53.786Z,52.80
2023-03-01T14:37:27.458Z,53.60
2023-03-01T14:39:56.895Z,53.60
2023-03-01T14:42:28.619Z,53.70
2023-03-01T14:44:58.883Z,53.90
2023-03-01T14:47:31.378Z,54.40
2023-03-01T14:50:15.970Z,54.70
2023-03-01T14:52:48.123Z,54.40
2023-03-01T14:55:27.484Z,53.60
2023-03-01T14:57:55.533Z,53.00
2023-03-01T15:00:30.028Z,52.60
2023-03-01T15:03:02.544Z,51.30
2023-03-01T15:05:35.048Z,48.40
2023-03-01T15:08:05.247Z,47.10
2023-03-01T15:10:36.453Z,47.10
2023-03-01T15:13:16.483Z,48.00
2023-03-01T15:15:47.908Z,46.70
2023-03-01T15:18:18.868Z,46.00
2023-03-01T15:20:48.938Z,45.80
2023-03-01T15:23:29.217Z,46.30
2023-03-01T15:25:58.833Z,46.90
2023-03-01T15:28:33.263Z,46.40
2023-03-01T15:31:25.258Z,46.60
2023-03-01T15:33:53.491Z,46.50
2023-03-01T15:36:45.142Z,45.80
2023-03-01T15:39:39.708Z,45.90
2023-03-01T15:42:34.263Z,45.30
2023-03-01T15:45:18.688Z,45.90
2023-03-01T15:47:52.595Z,46.90
2023-03-01T15:50:28.161Z,46.90
2023-03-01T15:52:57.575Z,48.00
2023-03-01T15:55:31.439Z,51.00
2023-03-01T15:58:02.373Z,55.70
2023-03-01T16:00:30.684Z,58.80
2023-03-01T16:02:58.926Z,61.30
2023-03-01T16:05:30.018Z,63.40
2023-03-01T16:07:58.548Z,63.30
2023-03-01T16:10:27.091Z,60.90
2023-03-01T16:12:55.932Z,59.40
2023-03-01T16:15:33.393Z,60.00
2023-03-01T16:18:01.746Z,59.70
2023-03-01T16:20:33.789Z,60.30
2023-03-01T16:23:04.723Z,60.30
2023-03-01T16:25:34.076Z,61.70
2023-03-01T16:28:06.192Z,62.40
2023-03-01T16:30:37.127Z,63.10
2023-03-01T16:33:23.983Z,63.60
2023-03-01T16:35:55.573Z,64.60
2023-03-01T16:38:23.859Z,65.60
2023-03-01T16:40:53.874Z,66.30
2023-03-01T16:43:22.032Z,67.40
2023-03-01T16:45:50.197Z,68.50
2023-03-01T16:48:18.494Z,69.20
2023-03-01T16:50:46.249Z,70.00
2023-03-01T16:53:15.134Z,70.60
2023-03-01T16:55:46.729Z,72.10
2023-03-01T16:58:16.917Z,73.30
2023-03-01T17:00:45.182Z,75.40
2023-03-01T17:03:15.143Z,77.10
2023-03-01T17:05:43.361Z,78.90
2023-03-01T17:08:11.389Z,81.20
2023-03-01T17:10:39.911Z,83.80
2023-03-01T17:13:07.947Z,86.00
2023-03-01T17:15:36.158Z,87.90
2023-03-01T17:18:04.281Z,89.90
2023-03-01T17:20:32.349Z,90.60
2023-03-01T17:23:00.266Z,91.10
2023-03-01T17:25:29.147Z,91.90
2023-03-01T17:27:57.314Z,92.60
2023-03-01T17:30:25.531Z,93.70
2023-03-01T17:32:56.174Z,94.30
2023-03-01T17:35:24.619Z,94.90
2023-03-01T17:37:52.609Z,95.40
2023-03-01T17:40:21.023Z,95.30
2023-03-01T17:42:49.104Z,95.60
2023-03-01T17:45:17.285Z,95.90
2023-03-01T17:47:45.568Z,96.00
2023-03-01T17:50:13.608Z,96.30
2023-03-01T17:52:44.126Z,96.50
2023-03-01T17:55:12.560Z,96.70
2023-03-01T17:57:41.568Z,97.10
2023-03-01T18:00:14.338Z,97.30
2023-03-01T18:02:44.788Z,97.60
2023-03-01T18:05:12.911Z,97.90
2023-03-01T18:07:41.002Z,97.90
2023-03-01T18:10:10.692Z,98.00
2023-03-01T18:12:39.778Z,98.30
2023-03-01T18:15:08.595Z,98.50
2023-03-01T18:17:36.702Z,98.70
2023-03-01T18:20:05.738Z,98.90
2023-03-01T18:22:34.637Z,99.00
2023-03-01T18:25:02.794Z,99.10
2023-03-01T18:27:31.720Z,99.30
2023-03-01T18:29:59.788Z,99.30
2023-03-01T18:32:28.382Z,99.40
2023-03-01T18:34:56.354Z,99.60
2023-03-01T18:37:25.238Z,99.60
2023-03-01T18:39:56.034Z,99.60
2023-03-01T18:42:23.876Z,99.60
2023-03-01T18:44:51.880Z,99.40
2023-03-01T18:47:19.931Z,99.20
2023-03-01T18:49:47.781Z,99.20
2023-03-01T18:52:15.718Z,99.40
2023-03-01T18:54:45.277Z,99.40
2023-03-01T18:57:13.186Z,99.70
2023-03-01T18:59:41.108Z,99.60
2023-03-01T19:02:11.640Z,99.50
2023-03-01T19:04:40.662Z,99.30
2023-03-01T19:07:08.741Z,99.30
2023-03-01T19:09:36.926Z,99.50
2023-03-01T19:12:06.830Z,99.70
2023-03-01T19:14:35.009Z,99.50
2023-03-01T19:17:03.733Z,99.40
2023-03-01T19:19:31.968Z,99.30
2023-03-01T19:22:05.670Z,99.40
2023-03-01T19:24:35.730Z,99.00
2023-03-01T19:27:04.043Z,99.00
2023-03-01T19:29:32.382Z,98.90
2023-03-01T19:32:01.056Z,98.60
2023-03-01T19:34:29.467Z,98.50
2023-03-01T19:36:57.579Z,98.50
2023-03-01T19:39:27.760Z,98.30
2023-03-01T19:41:56.413Z,98.40
2023-03-01T19:44:25.444Z,98.10
2023-03-01T19:46:59.963Z,97.90
2023-03-01T19:49:30.075Z,97.90
2023-03-01T19:51:57.878Z,97.60
2023-03-01T19:54:25.737Z,97.60
2023-03-01T19:56:53.548Z,97.60
2023-03-01T19:59:24.685Z,97.50
2023-03-01T20:01:53.274Z,97.50
2023-03-01T20:04:21.002Z,97.20
2023-03-01T20:06:50.050Z,97.40
2023-03-01T20:09:22.061Z,97.40
2023-03-01T20:11:50.968Z,97.30
2023-03-01T20:14:20.207Z,97.30
2023-03-01T20:16:49.121Z,97.20
2023-03-01T20:19:17.093Z,97.20
2023-03-01T20:21:48.040Z,97.10
2023-03-01T20:24:16.011Z,97.30
2023-03-01T20:26:43.877Z,97.60
2023-03-01T20:29:12.244Z,97.30
2023-03-01T20:31:42.247Z,97.20
2023-03-01T20:34:10.313Z,97.30
2023-03-01T20:36:39.868Z,97.10
2023-03-01T20:39:08.432Z,97.10
2023-03-01T20:41:36.508Z,97.30
2023-03-01T20:44:07.175Z,97.10
2023-03-01T20:46:36.300Z,97.00
2023-03-01T20:49:05.847Z,97.00
2023-03-01T20:51:34.239Z,96.80
2023-03-01T20:54:02.476Z,96.90
2023-03-01T20:56:30.795Z,97.00
2023-03-01T20:59:12.141Z,96.90
2023-03-01T21:01:42.033Z,97.00
2023-03-01T21:04:10.406Z,97.00
2023-03-01T21:06:39.668Z,97.10
2023-03-01T21:09:07.542Z,97.20
2023-03-01T21:11:35.409Z,97.30
2023-03-01T21:14:06.130Z,97.30
2023-03-01T21:16:35.885Z,97.40
2023-03-01T21:19:08.062Z,97.50
2023-03-01T21:21:35.937Z,97.60
2023-03-01T21:24:03.715Z,97.50
2023-03-01T21:26:31.899Z,97.80
2023-03-01T21:29:04.232Z,97.80
2023-03-01T21:31:35.471Z,97.90
2023-03-01T21:34:06.709Z,98.00
2023-03-01T21:36:36.392Z,98.10
2023-03-01T21:39:07.018Z,98.30
2023-03-01T21:41:37.674Z,98.20
2023-03-01T21:44:07.221Z,98.30
2023-03-01T21:46:38.464Z,98.40
2023-03-01T21:49:08.017Z,98.50
2023-03-01T21:51:37.179Z,98.60
2023-03-01T21:54:06.156Z,98.50
2023-03-01T21:56:39.375Z,98.50
2023-03-01T21:59:09.765Z,98.60
2023-03-01T22:01:37.818Z,98.70
2023-03-01T22:04:06.679Z,98.80
2023-03-01T22:06:43.802Z,98.90
2023-03-01T22:09:17.255Z,99.00
2023-03-01T22:12:02.699Z,98.90
2023-03-01T22:14:32.812Z,99.00
2023-03-01T22:17:00.606Z,99.00
2023-03-01T22:19:29.037Z,99.00
2023-03-01T22:21:56.931Z,99.10
2023-03-01T22:24:26.126Z,99.10
2023-03-01T22:26:55.269Z,99.30
2023-03-01T22:29:29.691Z,99.50
2023-03-01T22:31:58.868Z,99.80
2023-03-01T22:34:27.025Z,99.80
2023-03-01T22:36:55.030Z,99.80
2023-03-01T22:39:23.034Z,99.90
2023-03-01T22:41:51.480Z,99.90
2023-03-01T22:44:23.336Z,99.90
2023-03-01T22:46:52.031Z,99.90
2023-03-01T22:49:20.639Z,99.90
2023-03-01T22:51:49.926Z,99.90
2023-03-01T22:54:19.960Z,99.90
2023-03-01T22:56:48.267Z,99.90
2023-03-01T22:59:19.604Z,99.90
2023-03-01T23:01:48.269Z,99.90
2023-03-01T23:04:17.908Z,99.90
2023-03-01T23:06:54.454Z,99.90
2023-03-01T23:09:28.550Z,99.90
2023-03-01T23:11:57.277Z,99.90
2023-03-01T23:14:29.296Z,99.90
2023-03-01T23:16:57.425Z,99.90
2023-03-01T23:19:25.393Z,99.90
2023-03-01T23:21:54.952Z,99.90
2023-03-01T23:24:32.149Z,99.90
2023-03-01T23:27:01.917Z,99.90
2023-03-01T23:29:31.080Z,99.90
2023-03-01T23:32:00.444Z,99.90
2023-03-01T23:34:28.794Z,99.90
2023-03-01T23:36:58.346Z,99.90
2023-03-01T23:39:30.374Z,99.90
2023-03-01T23:41:59.105Z,99.90
2023-03-01T23:44:27.661Z,99.90
2023-03-01T23:46:55.797Z,99.90
2023-03-01T23:49:25.130Z,99.90
2023-03-01T23:51:53.231Z,99.90
2023-03-01T23:54:23.696Z,99.90
2023-03-01T23:56:51.640Z,99.90
2023-03-01T23:59:22.203Z,99.90
